Time;durP1;ratioP1;P1;durP2;ratioP2;P2;SDS_P1;SDS_P2;PMS_P1;PMS_P2;Temp;Humidity;BMP_temperature;BMP_pressure;BME280_temperature;BME280_humidity;BME280_pressure;Samples;Min_cycle;Max_cycle;Signal;HPM_P1;HPM_P2
2021/09/23 00:01:02;;;;;;;6.25;3.25;;;;;;;;;;5110081;28;20035;-67
2021/09/23 00:05:54;;;;;;;6.90;3.28;;;;;;;;;;5111673;28;20063;-67
2021/09/23 00:08:20;;;;;;;6.63;3.63;;;;;;;;;;5111175;28;20043;-67
2021/09/23 00:11:51;;;;;;;4.55;3.13;;;;;;;;;;5111304;27;20393;-64
2021/09/23 00:14:17;;;;;;;7.05;3.58;;;;;;;;;;5111171;28;20468;-65
2021/09/23 00:16:44;;;;;;;7.63;3.88;;;;;;;;;;5110791;28;20028;-65
2021/09/23 00:19:10;;;;;;;8.00;3.40;;;;;;;;;;5111213;28;20024;-65
2021/09/23 00:21:36;;;;;;;6.28;3.45;;;;;;;;;;5111068;28;20028;-65
2021/09/23 00:24:02;;;;;;;6.35;3.65;;;;;;;;;;5110885;28;20027;-65
2021/09/23 00:26:28;;;;;;;6.22;3.42;;;;;;;;;;5111095;28;20020;-66
2021/09/23 00:29:41;;;;;;;7.53;3.20;;;;;;;;;;5111636;27;20524;-67
2021/09/23 00:32:08;;;;;;;5.30;3.42;;;;;;;;;;5110916;28;20069;-67
2021/09/23 00:34:34;;;;;;;4.93;2.90;;;;;;;;;;5109986;28;20555;-65
2021/09/23 00:39:45;;;;;;;7.47;3.53;;;;;;;;;;5110980;27;20401;-64
2021/09/23 00:42:59;;;;;;;5.07;3.38;;;;;;;;;;5111770;27;20397;-67
2021/09/23 00:45:26;;;;;;;5.78;3.67;;;;;;;;;;5110954;28;20103;-67
2021/09/23 00:49:01;;;;;;;5.38;3.53;;;;;;;;;;5111671;27;20439;-67
2021/09/23 00:51:27;;;;;;;6.68;4.10;;;;;;;;;;5111314;28;20016;-67
2021/09/23 00:55:22;;;;;;;7.07;3.67;;;;;;;;;;5111534;27;20471;-67
2021/09/23 00:57:48;;;;;;;5.32;3.67;;;;;;;;;;5111368;28;20085;-67
2021/09/23 01:00:16;;;;;;;9.82;4.07;;;;;;;;;;5111154;28;20104;-67
2021/09/23 01:02:42;;;;;;;6.30;3.45;;;;;;;;;;5111373;28;20499;-65
2021/09/23 01:07:21;;;;;;;6.68;3.95;;;;;;;;;;5111108;27;20456;-65
2021/09/23 01:09:48;;;;;;;5.63;3.88;;;;;;;;;;5111142;28;20086;-65
2021/09/23 01:14:54;;;;;;;7.55;3.70;;;;;;;;;;5070410;28;20403;-65
2021/09/23 01:17:48;;;;;;;6.63;3.95;;;;;;;;;;5081987;27;2090115;-66
2021/09/23 01:20:15;;;;;;;5.97;3.78;;;;;;;;;;5130019;28;20035;-65
2021/09/23 01:22:41;;;;;;;6.05;3.45;;;;;;;;;;5130352;28;20019;-65
2021/09/23 01:25:08;;;;;;;6.57;3.47;;;;;;;;;;5131879;28;20387;-66
2021/09/23 01:27:34;;;;;;;5.18;3.45;;;;;;;;;;5131151;28;20031;-65
2021/09/23 01:30:01;;;;;;;5.55;3.25;;;;;;;;;;5131551;28;20031;-66
2021/09/23 01:32:28;;;;;;;5.38;3.65;;;;;;;;;;5131510;28;20031;-66
2021/09/23 01:34:54;;;;;;;6.88;3.78;;;;;;;;;;5131064;28;20016;-65
2021/09/23 01:37:20;;;;;;;6.38;3.58;;;;;;;;;;5131608;28;20042;-66
2021/09/23 01:41:33;;;;;;;7.30;3.58;;;;;;;;;;5111201;27;20473;-65
2021/09/23 01:44:00;;;;;;;6.95;3.78;;;;;;;;;;5111239;28;20032;-65
2021/09/23 01:46:26;;;;;;;8.50;3.67;;;;;;;;;;5111490;28;20031;-67
2021/09/23 01:49:59;;;;;;;5.85;3.47;;;;;;;;;;5110851;27;20714;-64
2021/09/23 01:52:26;;;;;;;6.13;3.25;;;;;;;;;;5111331;28;20046;-67
2021/09/23 01:54:52;;;;;;;5.50;3.05;;;;;;;;;;5111214;28;20532;-67
2021/09/23 01:58:23;;;;;;;5.95;3.20;;;;;;;;;;5071003;28;20400;-67
2021/09/23 02:03:00;;;;;;;6.97;4.13;;;;;;;;;;5111093;27;20840;-65
2021/09/23 02:06:09;;;;;;;6.32;4.05;;;;;;;;;;5112139;27;20396;-67
2021/09/23 02:08:35;;;;;;;5.80;3.50;;;;;;;;;;5111381;28;20020;-67
2021/09/23 02:11:32;;;;;;;8.05;4.45;;;;;;;;;;5111868;27;20388;-65
2021/09/23 02:13:58;;;;;;;6.03;3.22;;;;;;;;;;5111380;28;20032;-67
2021/09/23 02:16:24;;;;;;;7.00;3.53;;;;;;;;;;5110843;28;20034;-67
2021/09/23 02:18:50;;;;;;;5.88;3.40;;;;;;;;;;5127055;28;20024;-67
2021/09/23 02:21:16;;;;;;;7.25;4.00;;;;;;;;;;5111178;28;20095;-67
2021/09/23 02:23:43;;;;;;;6.70;3.65;;;;;;;;;;5111205;28;20016;-67
2021/09/23 02:26:09;;;;;;;3.78;2.53;;;;;;;;;;5111020;28;20480;-65
2021/09/23 02:28:36;;;;;;;7.05;3.47;;;;;;;;;;5110934;28;20024;-65
2021/09/23 02:31:03;;;;;;;5.93;3.40;;;;;;;;;;5110492;28;20036;-66
2021/09/23 02:33:29;;;;;;;6.05;2.90;;;;;;;;;;5111188;28;20023;-66
2021/09/23 02:35:55;;;;;;;5.47;3.13;;;;;;;;;;5110894;28;20031;-66
2021/09/23 02:38:21;;;;;;;5.82;3.10;;;;;;;;;;5110459;28;20024;-66
2021/09/23 02:40:47;;;;;;;7.18;3.28;;;;;;;;;;5110809;28;20525;-66
2021/09/23 02:43:14;;;;;;;5.97;3.33;;;;;;;;;;5110897;28;20020;-66
2021/09/23 02:45:40;;;;;;;5.80;3.13;;;;;;;;;;5110278;28;20031;-66
2021/09/23 02:48:07;;;;;;;5.35;3.42;;;;;;;;;;5126479;28;20020;-66
2021/09/23 02:50:33;;;;;;;4.38;2.65;;;;;;;;;;5110506;28;20023;-66
2021/09/23 02:52:59;;;;;;;6.15;2.95;;;;;;;;;;5110096;28;20024;-66
2021/09/23 02:55:25;;;;;;;5.85;3.20;;;;;;;;;;5110679;28;20031;-66
2021/09/23 02:57:54;;;;;;;6.07;3.75;;;;;;;;;;5110351;28;20094;-66
2021/09/23 03:00:20;;;;;;;6.72;3.72;;;;;;;;;;5109926;28;20476;-66
2021/09/23 03:02:47;;;;;;;6.32;3.95;;;;;;;;;;5126102;28;20142;-66
2021/09/23 03:05:13;;;;;;;6.63;3.67;;;;;;;;;;5110343;28;20020;-66
2021/09/23 03:07:39;;;;;;;7.22;3.90;;;;;;;;;;5110029;28;20376;-66
2021/09/23 03:10:05;;;;;;;6.30;3.83;;;;;;;;;;5110049;28;20153;-65
2021/09/23 03:12:32;;;;;;;7.28;3.78;;;;;;;;;;5110130;28;20488;-66
2021/09/23 03:14:58;;;;;;;6.88;3.88;;;;;;;;;;5110339;28;20080;-66
2021/09/23 03:17:24;;;;;;;6.55;3.83;;;;;;;;;;5109995;28;20030;-66
2021/09/23 03:19:52;;;;;;;5.68;3.10;;;;;;;;;;5109629;28;20027;-66
2021/09/23 03:22:19;;;;;;;6.25;3.53;;;;;;;;;;5115211;28;20056;-66
2021/09/23 03:24:47;;;;;;;6.28;3.80;;;;;;;;;;5096269;28;20036;-66
2021/09/23 03:27:14;;;;;;;7.00;4.05;;;;;;;;;;5096087;28;20020;-66
2021/09/23 03:29:40;;;;;;;7.72;3.83;;;;;;;;;;5096134;28;20473;-66
2021/09/23 03:32:07;;;;;;;6.57;3.60;;;;;;;;;;5096182;28;20039;-65
2021/09/23 03:34:33;;;;;;;6.50;3.72;;;;;;;;;;5095779;28;20085;-66
2021/09/23 03:36:59;;;;;;;7.15;3.92;;;;;;;;;;5096071;28;20520;-66
2021/09/23 03:39:25;;;;;;;9.18;5.03;;;;;;;;;;5095990;28;20036;-66
2021/09/23 03:41:52;;;;;;;7.15;4.38;;;;;;;;;;5095692;28;20042;-66
2021/09/23 03:44:18;;;;;;;7.18;4.15;;;;;;;;;;5095899;28;20032;-65
2021/09/23 03:46:44;;;;;;;7.15;4.35;;;;;;;;;;5096019;28;20016;-65
2021/09/23 03:49:10;;;;;;;8.05;4.15;;;;;;;;;;5095380;28;20020;-66
2021/09/23 03:51:36;;;;;;;6.53;3.38;;;;;;;;;;5095803;28;20058;-65
2021/09/23 03:54:03;;;;;;;6.93;4.10;;;;;;;;;;5095744;28;20044;-65
2021/09/23 03:56:29;;;;;;;7.38;4.03;;;;;;;;;;5095279;28;20024;-65
2021/09/23 03:58:55;;;;;;;6.90;4.28;;;;;;;;;;5095867;28;20481;-66
2021/09/23 04:01:22;;;;;;;7.35;4.65;;;;;;;;;;5095550;28;20028;-66
2021/09/23 04:03:48;;;;;;;7.53;4.30;;;;;;;;;;5110846;28;20028;-66
2021/09/23 04:06:14;;;;;;;8.38;4.68;;;;;;;;;;5095455;28;20388;-67
2021/09/23 04:08:40;;;;;;;6.50;4.18;;;;;;;;;;5110836;28;20051;-67
2021/09/23 04:11:06;;;;;;;7.55;4.80;;;;;;;;;;5095311;28;20045;-66
2021/09/23 04:13:32;;;;;;;8.00;4.93;;;;;;;;;;5095448;28;20171;-67
2021/09/23 04:15:59;;;;;;;8.10;4.38;;;;;;;;;;5095096;28;20105;-67
2021/09/23 04:18:25;;;;;;;7.70;4.35;;;;;;;;;;5095636;28;20494;-67
2021/09/23 04:20:51;;;;;;;6.97;3.50;;;;;;;;;;5095247;28;20365;-67
2021/09/23 04:23:17;;;;;;;7.93;4.35;;;;;;;;;;5094902;28;20353;-67
2021/09/23 04:25:43;;;;;;;8.90;4.20;;;;;;;;;;5095487;28;20028;-67
2021/09/23 04:28:10;;;;;;;8.77;5.15;;;;;;;;;;5095300;28;20020;-66
2021/09/23 04:30:36;;;;;;;8.32;4.88;;;;;;;;;;5094687;28;20039;-66
2021/09/23 04:33:02;;;;;;;8.18;5.03;;;;;;;;;;5094010;28;20376;-67
2021/09/23 04:35:28;;;;;;;8.90;4.72;;;;;;;;;;5094901;28;20036;-66
2021/09/23 04:37:54;;;;;;;9.13;4.70;;;;;;;;;;5094437;28;20037;-67
2021/09/23 04:40:21;;;;;;;6.28;4.00;;;;;;;;;;5094857;28;20039;-67
2021/09/23 04:42:47;;;;;;;9.27;5.03;;;;;;;;;;5094991;28;20028;-67
2021/09/23 04:45:13;;;;;;;7.85;4.43;;;;;;;;;;5094398;28;20484;-67
2021/09/23 04:47:39;;;;;;;7.80;4.53;;;;;;;;;;5094793;28;20020;-67
2021/09/23 04:50:06;;;;;;;9.65;4.60;;;;;;;;;;5094551;28;20476;-67
2021/09/23 04:52:32;;;;;;;8.32;4.60;;;;;;;;;;5094212;28;20035;-67
2021/09/23 04:54:59;;;;;;;7.88;4.72;;;;;;;;;;5094968;28;20027;-67
2021/09/23 04:57:25;;;;;;;7.55;4.32;;;;;;;;;;5094439;28;20024;-67
2021/09/23 04:59:51;;;;;;;9.27;4.03;;;;;;;;;;5094016;28;20024;-67
2021/09/23 05:02:17;;;;;;;13.80;5.97;;;;;;;;;;5094567;28;20477;-67
2021/09/23 05:04:45;;;;;;;7.78;4.43;;;;;;;;;;5109994;28;20360;-67
2021/09/23 05:07:11;;;;;;;7.50;4.55;;;;;;;;;;5091470;28;20039;-66
2021/09/23 05:09:37;;;;;;;7.45;4.47;;;;;;;;;;5092664;28;20044;-66
2021/09/23 05:12:04;;;;;;;8.00;4.53;;;;;;;;;;5092393;28;20048;-67
2021/09/23 05:14:30;;;;;;;8.00;4.15;;;;;;;;;;5108798;28;20466;-65
2021/09/23 05:16:57;;;;;;;5.70;3.67;;;;;;;;;;5075584;28;20409;-66
2021/09/23 05:19:23;;;;;;;7.47;4.10;;;;;;;;;;5070328;28;20099;-67
2021/09/23 05:21:50;;;;;;;9.75;4.97;;;;;;;;;;5080445;28;20100;-67
2021/09/23 05:24:17;;;;;;;7.35;4.03;;;;;;;;;;5093154;28;20020;-65
2021/09/23 05:26:44;;;;;;;10.15;5.05;;;;;;;;;;5090996;28;20042;-66
2021/09/23 05:29:10;;;;;;;7.78;3.90;;;;;;;;;;5087318;28;20491;-65
2021/09/23 05:31:36;;;;;;;6.30;3.58;;;;;;;;;;5093305;28;20028;-67
2021/09/23 05:34:22;;;;;;;7.45;4.38;;;;;;;;;;5110675;27;20388;-66
2021/09/23 05:36:49;;;;;;;7.55;4.47;;;;;;;;;;5110824;28;20031;-67
2021/09/23 05:39:15;;;;;;;6.57;3.38;;;;;;;;;;5110839;28;20031;-69
2021/09/23 05:42:25;;;;;;;11.52;4.00;;;;;;;;;;5101075;27;20917;-68
2021/09/23 05:44:51;;;;;;;6.38;3.65;;;;;;;;;;5108364;28;20028;-69
2021/09/23 05:47:18;;;;;;;9.55;4.47;;;;;;;;;;5108823;28;20034;-67
2021/09/23 05:49:44;;;;;;;8.63;5.47;;;;;;;;;;5109309;28;20023;-68
2021/09/23 05:54:56;;;;;;;8.98;4.78;;;;;;;;;;5068837;28;20457;-68
2021/09/23 05:57:24;;;;;;;8.35;4.75;;;;;;;;;;5068779;28;20083;-68
2021/09/23 05:59:50;;;;;;;7.57;4.60;;;;;;;;;;5069460;28;20020;-67
2021/09/23 06:02:17;;;;;;;7.65;4.72;;;;;;;;;;5068632;28;20517;-67
2021/09/23 06:04:43;;;;;;;8.95;4.30;;;;;;;;;;5069707;28;20020;-67
2021/09/23 06:07:10;;;;;;;10.85;5.32;;;;;;;;;;5069416;28;20437;-68
2021/09/23 06:09:36;;;;;;;7.57;4.50;;;;;;;;;;5066891;28;20028;-68
2021/09/23 06:12:02;;;;;;;6.80;4.88;;;;;;;;;;5069358;28;20032;-66
2021/09/23 06:14:52;;;;;;;7.70;4.60;;;;;;;;;;5109890;27;20953;-67
2021/09/23 06:17:18;;;;;;;8.02;4.70;;;;;;;;;;5104202;28;20081;-73
2021/09/23 06:19:44;;;;;;;7.75;4.70;;;;;;;;;;5110855;28;20383;-74
2021/09/23 06:22:11;;;;;;;9.77;4.78;;;;;;;;;;5109130;28;20062;-73
2021/09/23 06:24:37;;;;;;;10.40;4.60;;;;;;;;;;5110280;28;20051;-71
2021/09/23 06:27:03;;;;;;;9.10;4.55;;;;;;;;;;5109974;28;20144;-73
2021/09/23 06:29:29;;;;;;;7.68;4.68;;;;;;;;;;5110210;28;20024;-75
2021/09/23 06:31:56;;;;;;;15.65;6.25;;;;;;;;;;5110557;28;20365;-75
2021/09/23 06:34:22;;;;;;;7.60;4.55;;;;;;;;;;5109791;28;20032;-74
2021/09/23 06:38:02;;;;;;;7.15;4.32;;;;;;;;;;5109429;27;20415;-74
2021/09/23 06:41:17;;;;;;;8.30;4.55;;;;;;;;;;5067367;28;20745;-73
2021/09/23 06:44:45;;;;;;;7.65;4.43;;;;;;;;;;5130051;27;20317;-73
2021/09/23 06:47:11;;;;;;;9.45;5.40;;;;;;;;;;5108208;28;20042;-73
2021/09/23 06:50:05;;;;;;;9.32;4.90;;;;;;;;;;5110977;27;20398;-74
2021/09/23 06:52:31;;;;;;;9.07;4.78;;;;;;;;;;5109372;28;20024;-76
2021/09/23 06:55:33;;;;;;;7.07;4.97;;;;;;;;;;5109629;27;20928;-73
2021/09/23 06:57:59;;;;;;;8.25;4.13;;;;;;;;;;5109923;28;20491;-72
2021/09/23 07:02:33;;;;;;;12.10;4.28;;;;;;;;;;5108759;27;20477;-75
2021/09/23 07:04:59;;;;;;;9.07;5.13;;;;;;;;;;5105229;28;20040;-76
2021/09/23 07:07:25;;;;;;;7.40;4.63;;;;;;;;;;5100227;28;20031;-73
2021/09/23 07:09:51;;;;;;;7.88;4.70;;;;;;;;;;5116924;28;20015;-74
2021/09/23 07:12:17;;;;;;;7.68;4.47;;;;;;;;;;5123958;28;20024;-74
2021/09/23 07:14:44;;;;;;;7.80;4.70;;;;;;;;;;5109603;28;20039;-73
2021/09/23 07:17:10;;;;;;;6.28;4.18;;;;;;;;;;5108698;28;20020;-77
2021/09/23 07:19:36;;;;;;;9.13;4.65;;;;;;;;;;5108274;28;20024;-75
2021/09/23 07:22:04;;;;;;;9.30;4.97;;;;;;;;;;5107166;28;20064;-72
2021/09/23 07:24:30;;;;;;;8.25;5.10;;;;;;;;;;5106156;28;20023;-74
2021/09/23 07:29:15;;;;;;;7.03;4.15;;;;;;;;;;5109858;27;20442;-74
2021/09/23 07:32:49;;;;;;;7.38;4.38;;;;;;;;;;5110161;27;20772;-74
2021/09/23 07:35:15;;;;;;;9.07;3.90;;;;;;;;;;5108239;28;20485;-72
2021/09/23 07:42:26;;;;;;;7.47;4.43;;;;;;;;;;5127557;27;20804;-74
2021/09/23 07:46:31;;;;;;;7.50;4.40;;;;;;;;;;5066085;27;20419;-73
2021/09/23 07:48:57;;;;;;;8.18;4.30;;;;;;;;;;5067576;28;20078;-71
2021/09/23 07:54:57;;;;;;;7.03;3.97;;;;;;;;;;5066074;28;20407;-72
2021/09/23 07:57:23;;;;;;;8.85;4.20;;;;;;;;;;5061450;28;20043;-73
2021/09/23 08:01:27;;;;;;;10.07;4.47;;;;;;;;;;5106824;27;20401;-75
2021/09/23 08:03:54;;;;;;;6.63;3.47;;;;;;;;;;5098419;28;20034;-75
2021/09/23 08:08:02;;;;;;;7.15;3.33;;;;;;;;;;5106866;27;20974;-76
2021/09/23 08:10:29;;;;;;;6.85;4.07;;;;;;;;;;5106517;28;20051;-73
2021/09/23 08:16:09;;;;;;;6.05;3.70;;;;;;;;;;5108151;27;20312;-73
2021/09/23 08:18:36;;;;;;;6.55;3.70;;;;;;;;;;5107038;28;20031;-72
2021/09/23 08:21:03;;;;;;;6.63;3.95;;;;;;;;;;5089549;28;20023;-73
2021/09/23 08:23:30;;;;;;;7.57;4.20;;;;;;;;;;5089459;28;20439;-72
2021/09/23 08:25:56;;;;;;;7.03;4.00;;;;;;;;;;5090019;28;20029;-74
2021/09/23 08:29:17;;;;;;;8.38;4.55;;;;;;;;;;5068644;28;20419;-74
2021/09/23 08:31:43;;;;;;;9.95;4.03;;;;;;;;;;5068109;28;20021;-73
2021/09/23 08:35:40;;;;;;;6.20;3.80;;;;;;;;;;5067911;28;20419;-71
2021/09/23 08:38:07;;;;;;;8.32;4.45;;;;;;;;;;5067775;28;20039;-74
2021/09/23 08:41:57;;;;;;;6.55;3.75;;;;;;;;;;5067562;28;20395;-69
2021/09/23 08:44:24;;;;;;;8.93;4.68;;;;;;;;;;5067762;28;20031;-73
2021/09/23 08:53:29;;;;;;;9.25;4.20;;;;;;;;;;5107813;27;20454;-74
2021/09/23 08:55:55;;;;;;;8.07;3.58;;;;;;;;;;5108817;28;20031;-72
2021/09/23 08:58:24;;;;;;;5.88;3.20;;;;;;;;;;5108858;28;20036;-75
2021/09/23 09:03:26;;;;;;;5.50;3.65;;;;;;;;;;5108444;27;20439;-74
2021/09/23 09:05:53;;;;;;;6.55;3.90;;;;;;;;;;5095134;28;20082;-75
2021/09/23 09:08:44;;;;;;;6.22;3.50;;;;;;;;;;5108862;27;20397;-78
2021/09/23 09:11:12;;;;;;;7.43;3.17;;;;;;;;;;5108239;28;20179;-75
2021/09/23 09:14:35;;;;;;;6.25;3.25;;;;;;;;;;5070033;28;20427;-75
2021/09/23 09:17:03;;;;;;;6.65;3.70;;;;;;;;;;5066305;28;20428;-72
2021/09/23 09:19:43;;;;;;;6.93;4.20;;;;;;;;;;5058155;28;20166;-73
2021/09/23 09:23:56;;;;;;;5.63;2.88;;;;;;;;;;5110408;27;20401;-73
2021/09/23 09:26:27;;;;;;;5.65;3.40;;;;;;;;;;5109046;28;20101;-72
2021/09/23 09:30:28;;;;;;;5.28;3.47;;;;;;;;;;5162380;27;20102;-75
2021/09/23 09:32:59;;;;;;;5.55;3.22;;;;;;;;;;5148186;27;20034;-75
2021/09/23 09:36:03;;;;;;;4.57;2.90;;;;;;;;;;5108844;27;20984;-71
2021/09/23 09:38:44;;;;;;;4.45;2.60;;;;;;;;;;5110107;27;20445;-71
2021/09/23 09:41:10;;;;;;;5.88;3.45;;;;;;;;;;5109838;28;20027;-72
2021/09/23 09:43:37;;;;;;;4.75;2.58;;;;;;;;;;5110428;28;20016;-72
2021/09/23 09:46:05;;;;;;;6.03;3.00;;;;;;;;;;5110578;28;20024;-77
2021/09/23 09:48:32;;;;;;;5.03;3.20;;;;;;;;;;5108805;28;20028;-74
2021/09/23 09:51:01;;;;;;;4.72;3.10;;;;;;;;;;5110264;28;20027;-71
2021/09/23 09:53:30;;;;;;;6.07;3.22;;;;;;;;;;5108529;28;20119;-73
2021/09/23 09:55:56;;;;;;;5.45;3.20;;;;;;;;;;5096964;28;20533;-71
2021/09/23 09:58:24;;;;;;;6.05;3.47;;;;;;;;;;5088490;28;20044;-71
2021/09/23 10:00:51;;;;;;;5.97;2.97;;;;;;;;;;5089568;28;20016;-72
2021/09/23 10:03:21;;;;;;;5.45;3.28;;;;;;;;;;5089812;28;20093;-75
2021/09/23 10:05:47;;;;;;;8.75;3.13;;;;;;;;;;5089777;28;20024;-73
2021/09/23 10:11:12;;;;;;;6.18;2.65;;;;;;;;;;5110524;27;20465;-74
2021/09/23 10:13:39;;;;;;;5.03;3.15;;;;;;;;;;5104459;28;20023;-72
2021/09/23 10:16:05;;;;;;;5.38;3.00;;;;;;;;;;5108808;28;20051;-71
2021/09/23 10:18:45;;;;;;;4.53;2.80;;;;;;;;;;5108765;27;20389;-71
2021/09/23 10:21:11;;;;;;;4.80;2.70;;;;;;;;;;5107245;28;20479;-70
2021/09/23 10:23:41;;;;;;;6.25;3.28;;;;;;;;;;5106753;28;20023;-71
2021/09/23 10:26:08;;;;;;;4.28;2.55;;;;;;;;;;5107407;28;20028;-70
2021/09/23 10:28:34;;;;;;;4.60;2.50;;;;;;;;;;5106106;28;20016;-72
2021/09/23 10:31:33;;;;;;;3.85;2.40;;;;;;;;;;5106991;27;20396;-69
2021/09/23 10:34:02;;;;;;;4.32;2.35;;;;;;;;;;5103168;28;20089;-70
2021/09/23 10:39:09;;;;;;;4.47;2.35;;;;;;;;;;5167649;27;20110;-70
2021/09/23 10:41:37;;;;;;;4.22;2.45;;;;;;;;;;5150489;27;20019;-72
2021/09/23 10:44:28;;;;;;;5.13;2.17;;;;;;;;;;5129745;27;20380;-71
2021/09/23 10:46:55;;;;;;;4.60;2.70;;;;;;;;;;5109678;28;20027;-71
2021/09/23 10:57:03;;;;;;;4.72;2.83;;;;;;;;;;5088632;27;20402;-69
2021/09/23 10:59:29;;;;;;;6.90;2.55;;;;;;;;;;5079185;28;20025;-68
2021/09/23 11:01:55;;;;;;;6.40;2.35;;;;;;;;;;5069067;28;20104;-69
2021/09/23 11:06:13;;;;;;;3.47;2.38;;;;;;;;;;5109238;27;20476;-68
2021/09/23 11:08:47;;;;;;;4.43;2.47;;;;;;;;;;5110205;28;20321;-69
2021/09/23 11:11:15;;;;;;;6.22;3.03;;;;;;;;;;5109465;28;20100;-70
2021/09/23 11:13:42;;;;;;;4.97;2.80;;;;;;;;;;5109565;28;20027;-69
2021/09/23 11:16:09;;;;;;;5.55;2.45;;;;;;;;;;5110030;28;20039;-70
2021/09/23 11:18:36;;;;;;;4.22;2.30;;;;;;;;;;5109809;28;20047;-69
2021/09/23 11:21:04;;;;;;;4.00;2.45;;;;;;;;;;5106327;28;20030;-69
2021/09/23 11:25:50;;;;;;;4.00;2.40;;;;;;;;;;5109445;27;20380;-70
2021/09/23 11:32:51;;;;;;;6.20;2.60;;;;;;;;;;5108440;27;20870;-70
2021/09/23 11:35:19;;;;;;;5.25;2.88;;;;;;;;;;5102646;28;20077;-70
2021/09/23 11:37:46;;;;;;;6.10;2.50;;;;;;;;;;5105940;28;20127;-70
2021/09/23 11:40:13;;;;;;;5.07;2.50;;;;;;;;;;5107647;28;20106;-69
2021/09/23 11:42:44;;;;;;;7.68;3.17;;;;;;;;;;5109574;28;20023;-70
2021/09/23 11:45:15;;;;;;;3.85;2.40;;;;;;;;;;5110275;28;20028;-65
2021/09/23 11:47:54;;;;;;;5.38;2.10;;;;;;;;;;5108820;28;20024;-64
2021/09/23 11:50:23;;;;;;;3.30;2.10;;;;;;;;;;5087649;28;20066;-65
2021/09/23 11:52:52;;;;;;;5.13;2.33;;;;;;;;;;5104413;28;20024;-65
2021/09/23 11:55:18;;;;;;;4.30;2.42;;;;;;;;;;5111761;28;20065;-65
2021/09/23 11:57:44;;;;;;;8.05;2.30;;;;;;;;;;5109724;28;20027;-66
2021/09/23 12:00:11;;;;;;;3.17;1.95;;;;;;;;;;5109398;28;20027;-64
2021/09/23 12:02:37;;;;;;;3.97;2.20;;;;;;;;;;5107384;28;20186;-64
2021/09/23 12:07:13;;;;;;;4.82;2.38;;;;;;;;;;5108354;27;20528;-64
2021/09/23 12:09:59;;;;;;;3.97;2.10;;;;;;;;;;5107496;28;20101;-63
2021/09/23 12:12:28;;;;;;;4.97;2.30;;;;;;;;;;5108767;28;20468;-64
2021/09/23 12:14:55;;;;;;;5.07;2.72;;;;;;;;;;5108981;28;20101;-65
2021/09/23 12:17:21;;;;;;;5.80;2.92;;;;;;;;;;5107834;28;20046;-63
2021/09/23 12:19:57;;;;;;;5.82;2.70;;;;;;;;;;5109574;28;20043;-62
2021/09/23 12:22:36;;;;;;;4.53;2.67;;;;;;;;;;5108035;28;20027;-63
2021/09/23 12:25:13;;;;;;;4.82;2.45;;;;;;;;;;5109801;28;21896;-63
2021/09/23 12:27:39;;;;;;;4.50;2.55;;;;;;;;;;5107218;28;20184;-64
2021/09/23 12:30:06;;;;;;;4.93;2.50;;;;;;;;;;5107064;28;20020;-63
2021/09/23 12:32:34;;;;;;;4.03;2.40;;;;;;;;;;5107103;28;20027;-63
2021/09/23 12:35:00;;;;;;;5.15;2.53;;;;;;;;;;5108445;28;20094;-65
2021/09/23 12:37:26;;;;;;;5.03;2.42;;;;;;;;;;5108477;28;20028;-64
2021/09/23 12:39:52;;;;;;;9.45;2.78;;;;;;;;;;5107548;28;20020;-63
2021/09/23 12:42:19;;;;;;;4.72;2.60;;;;;;;;;;5108271;28;20123;-66
2021/09/23 12:44:56;;;;;;;3.13;1.90;;;;;;;;;;5105639;28;20108;-64
2021/09/23 12:48:31;;;;;;;3.38;1.80;;;;;;;;;;5109973;27;20392;-65
2021/09/23 12:50:57;;;;;;;4.80;2.55;;;;;;;;;;5110047;28;20020;-63
2021/09/23 12:53:23;;;;;;;4.90;2.80;;;;;;;;;;5109336;28;20024;-64
2021/09/23 12:55:49;;;;;;;3.83;2.20;;;;;;;;;;5108847;28;20024;-68
2021/09/23 12:58:21;;;;;;;3.53;2.00;;;;;;;;;;5107743;28;20465;-67
2021/09/23 13:00:48;;;;;;;4.32;1.90;;;;;;;;;;5108554;28;20066;-66
2021/09/23 13:03:17;;;;;;;7.72;2.28;;;;;;;;;;5108501;28;20035;-67
2021/09/23 13:05:47;;;;;;;6.10;2.20;;;;;;;;;;5108150;28;20024;-67
2021/09/23 13:08:19;;;;;;;2.78;1.63;;;;;;;;;;5108892;28;20114;-68
2021/09/23 13:10:46;;;;;;;5.25;2.33;;;;;;;;;;5109739;28;20012;-67
2021/09/23 13:13:12;;;;;;;4.97;2.20;;;;;;;;;;5109338;28;20388;-66
2021/09/23 13:15:39;;;;;;;4.45;2.13;;;;;;;;;;5110608;28;20047;-67
2021/09/23 13:18:07;;;;;;;4.03;1.92;;;;;;;;;;5108831;28;20076;-67
2021/09/23 13:20:36;;;;;;;3.25;1.65;;;;;;;;;;5110568;28;20028;-68
2021/09/23 13:23:04;;;;;;;11.43;2.40;;;;;;;;;;5110637;28;20023;-66
2021/09/23 13:25:30;;;;;;;4.00;2.30;;;;;;;;;;5110453;28;20048;-66
2021/09/23 13:27:56;;;;;;;4.88;2.47;;;;;;;;;;5109169;28;20043;-67
2021/09/23 13:30:22;;;;;;;3.17;1.90;;;;;;;;;;5110703;28;20095;-66
2021/09/23 13:32:49;;;;;;;7.25;1.80;;;;;;;;;;5110251;28;20212;-67
2021/09/23 13:35:16;;;;;;;5.53;2.42;;;;;;;;;;5110650;28;20438;-67
2021/09/23 13:37:42;;;;;;;4.85;1.95;;;;;;;;;;5110666;28;20463;-67
2021/09/23 13:40:10;;;;;;;2.55;1.58;;;;;;;;;;5110031;28;20023;-67
2021/09/23 13:42:36;;;;;;;6.53;1.98;;;;;;;;;;5109065;28;20027;-66
2021/09/23 13:45:04;;;;;;;2.25;1.63;;;;;;;;;;5110236;28;20057;-66
2021/09/23 13:47:31;;;;;;;5.55;2.00;;;;;;;;;;5109493;28;20075;-67
2021/09/23 13:49:57;;;;;;;2.53;1.80;;;;;;;;;;5110102;28;20023;-66
2021/09/23 13:52:23;;;;;;;3.47;1.70;;;;;;;;;;5109728;28;20058;-69
2021/09/23 13:54:49;;;;;;;3.58;1.92;;;;;;;;;;5110069;28;20031;-69
2021/09/23 13:57:15;;;;;;;5.55;2.20;;;;;;;;;;5110159;28;20091;-67
2021/09/23 13:59:43;;;;;;;4.53;2.10;;;;;;;;;;5096886;28;20027;-67
2021/09/23 14:02:09;;;;;;;4.88;2.13;;;;;;;;;;5096343;28;20376;-67
2021/09/23 14:04:36;;;;;;;3.03;1.67;;;;;;;;;;5096409;28;20024;-67
2021/09/23 14:07:02;;;;;;;5.85;2.00;;;;;;;;;;5095778;28;20039;-66
2021/09/23 14:09:29;;;;;;;4.93;1.75;;;;;;;;;;5096166;28;20043;-66
2021/09/23 14:11:55;;;;;;;3.13;1.50;;;;;;;;;;5096057;28;20028;-67
2021/09/23 14:14:25;;;;;;;3.28;2.08;;;;;;;;;;5094624;28;20404;-67
2021/09/23 14:16:52;;;;;;;3.47;1.92;;;;;;;;;;5094821;28;20107;-67
2021/09/23 14:19:18;;;;;;;5.60;1.55;;;;;;;;;;5095158;28;20028;-67
2021/09/23 14:21:44;;;;;;;3.13;1.30;;;;;;;;;;5094375;28;20411;-67
2021/09/23 14:24:15;;;;;;;3.58;1.42;;;;;;;;;;5096242;28;20047;-67
2021/09/23 14:26:43;;;;;;;4.38;1.92;;;;;;;;;;5095977;28;20031;-67
2021/09/23 14:29:09;;;;;;;5.50;2.58;;;;;;;;;;5095491;28;20447;-67
2021/09/23 14:31:35;;;;;;;4.10;1.73;;;;;;;;;;5094551;28;20024;-67
2021/09/23 14:34:02;;;;;;;5.30;2.50;;;;;;;;;;5095726;28;20108;-67
2021/09/23 14:36:30;;;;;;;4.82;2.05;;;;;;;;;;5095331;28;20028;-67
2021/09/23 14:38:57;;;;;;;2.22;1.63;;;;;;;;;;5094342;28;20042;-66
2021/09/23 14:41:23;;;;;;;4.55;1.65;;;;;;;;;;5095491;28;20042;-66
2021/09/23 14:43:49;;;;;;;9.38;2.60;;;;;;;;;;5095125;28;20101;-67
2021/09/23 14:46:15;;;;;;;3.55;1.88;;;;;;;;;;5095208;28;20024;-66
2021/09/23 14:48:42;;;;;;;2.28;1.38;;;;;;;;;;5093739;28;20020;-65
2021/09/23 14:51:08;;;;;;;3.22;1.92;;;;;;;;;;5095357;28;20013;-66
2021/09/23 14:53:34;;;;;;;4.18;1.80;;;;;;;;;;5094024;28;20066;-66
2021/09/23 14:56:01;;;;;;;3.05;1.65;;;;;;;;;;5093586;28;20051;-66
2021/09/23 14:58:27;;;;;;;4.35;1.83;;;;;;;;;;5095256;28;20384;-67
2021/09/23 15:00:54;;;;;;;2.92;1.58;;;;;;;;;;5095270;28;20478;-67
2021/09/23 15:03:22;;;;;;;3.83;1.65;;;;;;;;;;5094771;28;20048;-66
2021/09/23 15:05:49;;;;;;;6.45;1.88;;;;;;;;;;5095042;28;20020;-66
2021/09/23 15:08:15;;;;;;;5.00;2.20;;;;;;;;;;5095040;28;20039;-66
2021/09/23 15:10:43;;;;;;;5.30;1.80;;;;;;;;;;5092342;28;20116;-66
2021/09/23 15:13:09;;;;;;;4.85;2.00;;;;;;;;;;5093680;28;20435;-66
2021/09/23 15:15:36;;;;;;;2.95;1.85;;;;;;;;;;5095199;28;20096;-65
2021/09/23 15:18:02;;;;;;;5.13;2.30;;;;;;;;;;5094562;28;20472;-66
2021/09/23 15:20:28;;;;;;;3.28;1.75;;;;;;;;;;5094824;28;20024;-67
2021/09/23 15:22:54;;;;;;;3.22;1.80;;;;;;;;;;5094956;28;20085;-67
2021/09/23 15:25:20;;;;;;;2.65;1.58;;;;;;;;;;5094355;28;20537;-66
2021/09/23 15:27:47;;;;;;;2.83;1.60;;;;;;;;;;5093341;28;20032;-66
2021/09/23 15:30:14;;;;;;;2.95;1.50;;;;;;;;;;5094551;28;20108;-66
2021/09/23 15:32:41;;;;;;;3.08;1.85;;;;;;;;;;5094288;28;20031;-66
2021/09/23 15:35:07;;;;;;;2.83;1.83;;;;;;;;;;5094711;28;20025;-66
2021/09/23 15:37:34;;;;;;;3.53;2.00;;;;;;;;;;5094664;28;20140;-66
2021/09/23 15:40:00;;;;;;;4.70;1.92;;;;;;;;;;5092912;28;20020;-69
2021/09/23 15:42:26;;;;;;;5.50;2.28;;;;;;;;;;5093221;28;20104;-68
2021/09/23 15:44:52;;;;;;;4.25;2.20;;;;;;;;;;5094419;28;20023;-67
2021/09/23 15:47:19;;;;;;;3.40;1.73;;;;;;;;;;5093726;28;20047;-67
2021/09/23 15:49:45;;;;;;;4.13;2.08;;;;;;;;;;5094308;28;20024;-68
2021/09/23 15:52:12;;;;;;;3.58;1.88;;;;;;;;;;5093923;28;20031;-65
2021/09/23 15:54:38;;;;;;;4.75;2.25;;;;;;;;;;5094231;28;20044;-65
2021/09/23 15:57:04;;;;;;;3.47;2.17;;;;;;;;;;5094123;28;20027;-65
2021/09/23 15:59:31;;;;;;;3.83;1.85;;;;;;;;;;5094039;28;20072;-66
2021/09/23 16:01:58;;;;;;;3.30;1.83;;;;;;;;;;5094689;28;20476;-66
2021/09/23 16:05:11;;;;;;;3.97;1.70;;;;;;;;;;5112151;27;20396;-66
2021/09/23 16:07:38;;;;;;;4.97;2.08;;;;;;;;;;5110941;28;20020;-66
2021/09/23 16:10:05;;;;;;;7.72;2.03;;;;;;;;;;5111333;28;20038;-65
2021/09/23 16:12:31;;;;;;;4.97;1.80;;;;;;;;;;5111140;28;20047;-66
2021/09/23 16:14:57;;;;;;;3.78;1.80;;;;;;;;;;5109429;28;20078;-65
2021/09/23 16:17:23;;;;;;;3.70;2.10;;;;;;;;;;5110828;28;20069;-65
2021/09/23 16:19:49;;;;;;;4.40;2.33;;;;;;;;;;5110952;28;20024;-65